createdAt,value
2023-11-20T00:01:10.425Z,10.85
2023-11-20T00:03:39.784Z,6.00
2023-11-20T00:06:08.700Z,12.32
2023-11-20T00:08:37.238Z,8.55
2023-11-20T00:11:05.838Z,11.25
2023-11-20T00:13:35.510Z,14.68
2023-11-20T00:16:03.667Z,8.75
2023-11-20T00:18:32.030Z,14.93
2023-11-20T00:21:01.675Z,9.98
2023-11-20T00:23:30.093Z,10.13
2023-11-20T00:25:58.011Z,8.77
2023-11-20T00:28:26.089Z,8.18
2023-11-20T00:30:55.533Z,8.32
2023-11-20T00:33:24.723Z,14.38
2023-11-20T00:35:53.196Z,10.38
2023-11-20T00:38:22.478Z,14.90
2023-11-20T00:40:52.543Z,8.77
2023-11-20T00:43:21.139Z,10.05
2023-11-20T00:45:49.862Z,9.35
2023-11-20T00:48:19.201Z,11.73
2023-11-20T00:50:47.168Z,13.15
2023-11-20T00:53:15.315Z,12.02
2023-11-20T00:55:43.526Z,11.77
2023-11-20T00:58:11.763Z,9.27
2023-11-20T01:00:40.392Z,7.43
2023-11-20T01:03:08.919Z,4.68
2023-11-20T01:05:40.129Z,8.90
2023-11-20T01:08:08.129Z,7.10
2023-11-20T01:10:36.090Z,13.23
2023-11-20T01:13:04.089Z,9.15
2023-11-20T01:15:32.120Z,14.73
2023-11-20T01:18:00.728Z,11.20
2023-11-20T01:20:28.913Z,6.75
2023-11-20T01:22:58.460Z,13.13
2023-11-20T01:25:26.497Z,11.13
2023-11-20T01:27:54.663Z,9.48
2023-11-20T01:30:23.154Z,8.32
2023-11-20T01:32:51.464Z,12.02
2023-11-20T01:35:19.888Z,15.50
2023-11-20T01:37:47.866Z,9.13
2023-11-20T01:40:17.629Z,8.98
2023-11-20T01:42:46.303Z,9.68
2023-11-20T01:45:14.681Z,9.63
2023-11-20T01:47:43.612Z,7.78
2023-11-20T01:50:13.213Z,12.07
2023-11-20T01:52:43.681Z,10.90
2023-11-20T01:55:14.370Z,11.45
2023-11-20T01:57:46.824Z,10.75
2023-11-20T02:00:18.834Z,9.38
2023-11-20T02:02:51.748Z,7.82
2023-11-20T02:05:26.820Z,7.40
2023-11-20T02:07:59.617Z,9.27
2023-11-20T02:10:28.623Z,12.57
2023-11-20T02:13:11.766Z,5.63
2023-11-20T02:15:43.320Z,13.00
2023-11-20T02:18:33.164Z,6.10
2023-11-20T02:21:08.666Z,13.70
2023-11-20T02:23:39.661Z,8.40
2023-11-20T02:26:33.064Z,6.68
2023-11-20T02:29:13.660Z,5.85
2023-11-20T02:31:45.884Z,11.32
2023-11-20T02:34:15.129Z,10.68
2023-11-20T02:36:46.558Z,8.18
2023-11-20T02:39:14.986Z,9.93
2023-11-20T02:44:27.001Z,10.60
2023-11-20T02:47:09.452Z,8.88
2023-11-20T02:49:39.178Z,8.10
2023-11-20T02:52:12.403Z,10.15
2023-11-20T02:54:40.564Z,6.07
2023-11-20T02:57:13.386Z,7.53
2023-11-20T02:59:41.804Z,10.18
2023-11-20T03:02:16.139Z,12.73
2023-11-20T03:04:49.538Z,16.73
2023-11-20T03:09:57.795Z,14.10
2023-11-20T03:12:28.608Z,12.85
2023-11-20T03:14:57.483Z,15.93
2023-11-20T03:17:36.624Z,7.03
2023-11-20T03:20:12.297Z,10.00
2023-11-20T03:22:41.984Z,16.98
2023-11-20T03:25:12.932Z,12.77
2023-11-20T03:27:57.812Z,9.27
2023-11-20T03:30:26.569Z,3.73
2023-11-20T03:32:59.047Z,9.50
2023-11-20T03:35:28.938Z,11.50
2023-11-20T03:37:58.010Z,7.07
2023-11-20T03:40:28.397Z,10.68
2023-11-20T03:42:57.162Z,15.15
2023-11-20T03:45:27.355Z,15.10
2023-11-20T03:48:01.474Z,8.02
2023-11-20T03:50:33.550Z,12.57
2023-11-20T03:53:06.529Z,7.05
2023-11-20T03:55:35.284Z,5.10
2023-11-20T03:58:05.612Z,10.35
2023-11-20T04:00:34.774Z,6.88
2023-11-20T04:03:09.061Z,16.10
2023-11-20T04:05:39.434Z,6.03
2023-11-20T04:08:09.501Z,8.73
2023-11-20T04:10:40.594Z,7.75
2023-11-20T04:13:10.725Z,9.82
2023-11-20T04:15:40.457Z,7.35
2023-11-20T04:18:13.301Z,12.32
2023-11-20T04:23:12.137Z,12.70
2023-11-20T04:25:40.684Z,7.03
2023-11-20T04:28:08.799Z,6.90
2023-11-20T04:30:41.241Z,7.68
2023-11-20T04:33:11.779Z,7.78
2023-11-20T04:35:44.249Z,10.68
2023-11-20T04:38:15.453Z,8.80
2023-11-20T04:40:45.020Z,5.43
2023-11-20T04:43:19.796Z,8.95
2023-11-20T04:45:49.784Z,6.97
2023-11-20T04:48:19.067Z,7.93
2023-11-20T04:50:47.265Z,6.03
2023-11-20T04:53:15.397Z,11.65
2023-11-20T04:55:43.563Z,8.60
2023-11-20T04:58:11.537Z,6.25
2023-11-20T05:00:39.645Z,8.95
2023-11-20T05:03:08.097Z,4.55
2023-11-20T05:05:37.517Z,7.60
2023-11-20T05:08:05.989Z,10.10
2023-11-20T05:10:34.099Z,5.90
2023-11-20T05:13:02.194Z,4.57
2023-11-20T05:15:30.172Z,5.40
2023-11-20T05:17:58.238Z,7.15
2023-11-20T05:20:27.169Z,8.07
2023-11-20T05:22:56.551Z,10.23
2023-11-20T05:25:24.498Z,5.60
2023-11-20T05:27:52.279Z,7.40
2023-11-20T05:30:20.483Z,8.50
2023-11-20T05:32:48.447Z,8.75
2023-11-20T05:35:16.688Z,13.23
2023-11-20T05:37:44.519Z,12.32
2023-11-20T05:40:17.732Z,9.93
2023-11-20T05:42:45.769Z,9.45
2023-11-20T05:45:13.761Z,18.08
2023-11-20T05:47:42.548Z,7.70
2023-11-20T05:50:11.250Z,7.03
2023-11-20T05:52:40.069Z,11.60
2023-11-20T05:55:08.939Z,7.00
2023-11-20T05:57:38.772Z,4.97
2023-11-20T06:00:11.743Z,10.07
2023-11-20T06:02:40.268Z,10.52
2023-11-20T06:05:10.237Z,8.75
2023-11-20T06:07:38.619Z,4.75
2023-11-20T06:10:08.217Z,4.13
2023-11-20T06:12:36.285Z,5.60
2023-11-20T06:15:06.443Z,5.25
2023-11-20T06:17:35.119Z,2.83
2023-11-20T06:20:04.928Z,6.75
2023-11-20T06:22:32.892Z,3.33
2023-11-20T06:25:01.103Z,3.58
2023-11-20T06:27:28.917Z,7.40
2023-11-20T06:29:57.023Z,3.55
2023-11-20T06:32:26.457Z,11.52
2023-11-20T06:34:54.808Z,9.00
2023-11-20T06:37:28.097Z,8.40
2023-11-20T06:42:24.703Z,2.67
2023-11-20T06:44:54.687Z,2.80
2023-11-20T06:47:23.818Z,7.63
2023-11-20T06:49:53.417Z,8.32
2023-11-20T06:52:21.420Z,8.80
2023-11-20T06:54:49.986Z,8.60
2023-11-20T06:57:18.027Z,15.57
2023-11-20T06:59:46.536Z,8.75
2023-11-20T07:02:16.381Z,3.75
2023-11-20T07:04:46.619Z,4.68
2023-11-20T07:07:18.851Z,9.20
2023-11-20T07:09:47.050Z,9.10
2023-11-20T07:12:17.533Z,4.30
2023-11-20T07:14:45.694Z,6.63
2023-11-20T07:17:14.947Z,7.40
2023-11-20T07:19:43.369Z,5.93
2023-11-20T07:22:11.476Z,4.03
2023-11-20T07:24:40.833Z,5.47
2023-11-20T07:27:08.984Z,7.18
2023-11-20T07:29:37.013Z,12.13
2023-11-20T07:32:06.143Z,4.78
2023-11-20T07:34:34.173Z,6.43
2023-11-20T07:37:02.946Z,2.75
2023-11-20T07:39:31.138Z,7.53
2023-11-20T07:42:01.729Z,3.97
2023-11-20T07:44:32.465Z,1.75
2023-11-20T07:47:00.975Z,7.82
2023-11-20T07:49:29.649Z,6.78
2023-11-20T07:51:57.908Z,8.75
2023-11-20T07:54:26.865Z,1.55
2023-11-20T07:56:55.176Z,5.53
2023-11-20T07:59:24.816Z,3.33
2023-11-20T08:01:54.003Z,3.55
2023-11-20T08:04:23.403Z,3.78
2023-11-20T08:06:51.640Z,9.48
2023-11-20T08:09:19.861Z,5.95
2023-11-20T08:11:48.044Z,6.88
2023-11-20T08:14:16.857Z,8.05
2023-11-20T08:16:46.429Z,3.72
2023-11-20T08:19:16.279Z,3.55
2023-11-20T08:21:44.573Z,7.70
2023-11-20T08:24:13.982Z,3.72
2023-11-20T08:26:44.079Z,5.78
2023-11-20T08:29:17.357Z,5.85
2023-11-20T08:34:20.251Z,2.35
2023-11-20T08:36:50.837Z,2.05
2023-11-20T08:39:20.644Z,1.80
2023-11-20T08:41:50.604Z,5.20
2023-11-20T08:44:19.733Z,7.45
2023-11-20T08:46:51.345Z,4.18
2023-11-20T08:49:19.876Z,2.30
2023-11-20T08:51:55.909Z,4.28
2023-11-20T08:54:30.097Z,4.30
2023-11-20T08:56:58.286Z,1.95
2023-11-20T08:59:27.785Z,5.30
2023-11-20T09:01:58.277Z,1.60
2023-11-20T09:04:27.960Z,1.33
2023-11-20T09:06:56.420Z,1.60
2023-11-20T09:09:24.969Z,5.85
2023-11-20T09:11:53.588Z,1.60
2023-11-20T09:14:21.823Z,2.00
2023-11-20T09:16:50.925Z,2.50
2023-11-20T09:19:20.748Z,2.75
2023-11-20T09:21:48.727Z,5.45
2023-11-20T09:24:17.000Z,2.42
2023-11-20T09:26:45.661Z,2.95
2023-11-20T09:29:13.703Z,4.45
2023-11-20T09:31:44.205Z,3.10
2023-11-20T09:34:13.186Z,3.67
2023-11-20T09:36:44.366Z,5.43
2023-11-20T09:39:14.868Z,4.82
2023-11-20T09:41:44.815Z,3.97
2023-11-20T09:44:13.479Z,3.22
2023-11-20T09:46:45.654Z,6.00
2023-11-20T09:49:23.656Z,3.85
2023-11-20T09:51:57.142Z,5.35
2023-11-20T09:56:54.931Z,1.98
2023-11-20T09:59:23.129Z,7.18
2023-11-20T10:01:52.090Z,3.20
2023-11-20T10:04:25.356Z,7.90
2023-11-20T10:06:56.678Z,2.55
2023-11-20T10:09:25.260Z,9.38
2023-11-20T10:11:57.372Z,6.57
2023-11-20T10:14:25.912Z,5.00
2023-11-20T10:16:54.939Z,6.32
2023-11-20T10:19:23.229Z,3.03
2023-11-20T10:21:54.491Z,3.50
2023-11-20T10:24:27.331Z,6.43
2023-11-20T10:26:55.983Z,2.38
2023-11-20T10:29:24.284Z,3.15
2023-11-20T10:31:52.774Z,1.25
2023-11-20T10:34:21.227Z,1.60
2023-11-20T10:37:06.605Z,3.17
2023-11-20T10:39:38.100Z,3.53
2023-11-20T10:42:07.302Z,2.42
2023-11-20T10:44:37.232Z,4.63
2023-11-20T10:47:07.806Z,7.75
2023-11-20T10:49:41.896Z,2.25
2023-11-20T10:52:27.511Z,0.98
2023-11-20T10:55:02.432Z,3.60
2023-11-20T10:57:35.399Z,3.63
2023-11-20T11:00:11.352Z,1.63
2023-11-20T11:02:41.323Z,2.33
2023-11-20T11:05:10.702Z,2.30
2023-11-20T11:07:41.470Z,1.52
2023-11-20T11:10:13.157Z,1.77
2023-11-20T11:12:43.054Z,1.33
2023-11-20T11:15:14.331Z,1.90
2023-11-20T11:17:48.258Z,0.93
2023-11-20T11:20:20.327Z,5.40
2023-11-20T11:22:56.840Z,3.03
2023-11-20T11:25:31.078Z,0.80
2023-11-20T11:28:00.716Z,3.13
2023-11-20T11:30:35.284Z,1.73
2023-11-20T11:33:23.641Z,3.28
2023-11-20T11:36:21.869Z,1.27
2023-11-20T11:39:02.163Z,3.65
2023-11-20T11:41:46.097Z,1.10
2023-11-20T11:44:20.610Z,0.85
2023-11-20T11:46:51.733Z,0.90
2023-11-20T11:49:22.065Z,1.40
2023-11-20T11:51:51.085Z,1.85
2023-11-20T11:54:20.849Z,3.83
2023-11-20T11:57:17.120Z,0.82
2023-11-20T11:59:46.185Z,0.68
2023-11-20T12:02:19.458Z,3.45
2023-11-20T12:05:09.511Z,2.13
2023-11-20T12:08:05.923Z,4.32
2023-11-20T12:10:47.341Z,2.70
2023-11-20T12:13:17.961Z,0.57
2023-11-20T12:15:49.134Z,1.95
2023-11-20T12:18:23.545Z,2.42
2023-11-20T12:21:08.663Z,0.98
2023-11-20T12:23:38.683Z,0.60
2023-11-20T12:26:09.005Z,3.20
2023-11-20T12:28:39.408Z,1.13
2023-11-20T12:31:09.063Z,4.60
2023-11-20T12:33:40.449Z,1.30
2023-11-20T12:36:10.282Z,4.10
2023-11-20T12:38:39.934Z,3.28
2023-11-20T12:41:10.212Z,1.50
2023-11-20T12:43:40.373Z,2.97
2023-11-20T12:46:09.690Z,2.00
2023-11-20T12:48:43.943Z,1.98
2023-11-20T12:51:13.083Z,1.75
2023-11-20T12:53:41.336Z,2.08
2023-11-20T12:56:10.842Z,1.85
2023-11-20T12:58:42.992Z,4.95
2023-11-20T13:01:13.339Z,1.42
2023-11-20T13:03:42.048Z,1.58
2023-11-20T13:06:12.761Z,4.15
2023-11-20T13:08:41.201Z,5.65
2023-11-20T13:11:12.627Z,1.05
2023-11-20T13:13:44.316Z,2.17
2023-11-20T13:16:18.180Z,2.30
2023-11-20T13:18:49.187Z,3.40
2023-11-20T13:21:24.343Z,1.15
2023-11-20T13:24:03.784Z,2.53
2023-11-20T13:26:31.899Z,4.88
2023-11-20T13:29:01.602Z,3.03
2023-11-20T13:31:33.536Z,1.35
2023-11-20T13:34:04.802Z,3.38
2023-11-20T13:36:35.458Z,1.67
2023-11-20T13:39:04.045Z,1.95
2023-11-20T13:41:32.553Z,3.42
2023-11-20T13:44:02.459Z,1.20
2023-11-20T13:46:34.922Z,0.75
2023-11-20T13:49:04.055Z,0.83
2023-11-20T13:51:32.339Z,1.13
2023-11-20T13:54:00.919Z,2.85
2023-11-20T13:56:28.874Z,2.15
2023-11-20T13:59:01.560Z,3.65
2023-11-20T14:01:30.414Z,0.93
2023-11-20T14:03:59.080Z,1.10
2023-11-20T14:06:27.443Z,2.72
2023-11-20T14:08:55.784Z,1.35
2023-11-20T14:11:24.113Z,2.17
2023-11-20T14:13:53.488Z,0.98
2023-11-20T14:16:23.368Z,1.50
2023-11-20T14:18:51.788Z,1.65
2023-11-20T14:21:23.406Z,1.27
2023-11-20T14:23:52.070Z,0.90
2023-11-20T14:26:29.649Z,1.02
2023-11-20T14:29:03.115Z,1.13
2023-11-20T14:31:34.518Z,1.02
2023-11-20T14:34:04.927Z,2.20
2023-11-20T14:36:34.128Z,0.70
2023-11-20T14:39:02.266Z,1.20
2023-11-20T14:41:30.218Z,2.13
2023-11-20T14:43:58.219Z,1.38
2023-11-20T14:46:26.629Z,1.83
2023-11-20T14:48:58.291Z,2.22
2023-11-20T14:51:26.287Z,2.25
2023-11-20T14:53:54.031Z,2.22
2023-11-20T14:56:22.529Z,2.72
2023-11-20T14:58:51.706Z,1.65
2023-11-20T15:01:20.696Z,3.78
2023-11-20T15:03:49.257Z,0.77
2023-11-20T15:06:19.219Z,3.65
2023-11-20T15:08:47.490Z,1.35
2023-11-20T15:11:15.957Z,0.93
2023-11-20T15:13:44.475Z,3.85
2023-11-20T15:16:12.598Z,1.13
2023-11-20T15:18:41.205Z,3.83
2023-11-20T15:21:09.256Z,2.72
2023-11-20T15:23:38.701Z,4.15
2023-11-20T15:26:07.023Z,1.00
2023-11-20T15:28:35.233Z,1.27
2023-11-20T15:31:03.528Z,2.78
2023-11-20T15:33:31.628Z,1.48
2023-11-20T15:36:00.317Z,5.05
2023-11-20T15:38:28.529Z,1.70
2023-11-20T15:40:57.920Z,1.92
2023-11-20T15:43:26.041Z,1.40
2023-11-20T15:45:57.800Z,2.70
2023-11-20T15:48:26.003Z,0.95
2023-11-20T15:50:54.279Z,1.95
2023-11-20T15:53:22.814Z,1.58
2023-11-20T15:55:52.041Z,2.38
2023-11-20T15:58:22.057Z,2.05
2023-11-20T16:00:50.661Z,4.88
2023-11-20T16:03:20.244Z,3.03
2023-11-20T16:05:49.342Z,4.63
2023-11-20T16:08:17.213Z,1.25
2023-11-20T16:10:45.321Z,1.48
2023-11-20T16:13:13.343Z,3.75
2023-11-20T16:15:45.864Z,1.38
2023-11-20T16:18:15.226Z,4.95
2023-11-20T16:20:44.678Z,2.33
2023-11-20T16:23:14.186Z,1.83
2023-11-20T16:25:47.480Z,1.33
2023-11-20T16:28:16.615Z,2.85
2023-11-20T16:30:48.829Z,4.50
2023-11-20T16:33:17.284Z,1.97
2023-11-20T16:35:45.594Z,4.25
2023-11-20T16:38:14.249Z,3.38
2023-11-20T16:40:42.477Z,2.97
2023-11-20T16:43:10.731Z,1.42
2023-11-20T16:45:39.616Z,1.92
2023-11-20T16:48:09.804Z,3.85
2023-11-20T16:50:37.881Z,2.28
2023-11-20T16:53:06.108Z,7.95
2023-11-20T16:55:35.035Z,4.30
2023-11-20T16:58:03.280Z,3.80
2023-11-20T17:00:32.111Z,5.65
2023-11-20T17:03:00.584Z,2.38
2023-11-20T17:05:30.574Z,3.92
2023-11-20T17:07:58.560Z,6.05
2023-11-20T17:10:27.528Z,3.55
2023-11-20T17:12:58.026Z,4.28
2023-11-20T17:15:26.475Z,3.22
2023-11-20T17:17:54.938Z,7.28
2023-11-20T17:20:23.455Z,5.15
2023-11-20T17:22:54.965Z,3.00
2023-11-20T17:25:24.210Z,2.50
2023-11-20T17:27:53.333Z,4.90
2023-11-20T17:30:22.430Z,4.88
2023-11-20T17:32:51.802Z,7.30
2023-11-20T17:35:21.891Z,3.15
2023-11-20T17:37:57.149Z,4.90
2023-11-20T17:40:26.525Z,5.53
2023-11-20T17:42:55.140Z,5.60
2023-11-20T17:45:24.857Z,4.97
2023-11-20T17:47:53.916Z,7.07
2023-11-20T17:50:22.493Z,7.18
2023-11-20T17:52:50.884Z,6.10
2023-11-20T17:55:20.868Z,6.78
2023-11-20T17:57:50.197Z,7.78
2023-11-20T18:00:23.462Z,10.90
2023-11-20T18:02:52.282Z,8.18
2023-11-20T18:05:20.768Z,7.57
2023-11-20T18:07:49.156Z,4.03
2023-11-20T18:10:17.457Z,11.27
2023-11-20T18:12:47.111Z,6.82
2023-11-20T18:15:15.337Z,7.40
2023-11-20T18:17:51.298Z,5.50
2023-11-20T18:20:21.230Z,8.20
2023-11-20T18:22:50.526Z,6.07
2023-11-20T18:25:18.622Z,5.47
2023-11-20T18:27:52.777Z,7.18
2023-11-20T18:30:22.084Z,8.10
2023-11-20T18:32:51.117Z,7.03
2023-11-20T18:35:20.761Z,6.32
2023-11-20T18:37:48.896Z,7.25
2023-11-20T18:40:20.712Z,4.20
2023-11-20T18:42:53.768Z,5.18
2023-11-20T18:45:23.431Z,4.68
2023-11-20T18:47:56.061Z,9.10
2023-11-20T18:50:24.421Z,6.07
2023-11-20T18:52:53.023Z,5.75
2023-11-20T18:55:33.980Z,6.30
2023-11-20T18:58:04.833Z,6.28
2023-11-20T19:00:33.051Z,7.82
2023-11-20T19:03:02.945Z,6.20
2023-11-20T19:05:31.957Z,3.50
2023-11-20T19:08:00.259Z,4.88
2023-11-20T19:10:29.170Z,5.85
2023-11-20T19:12:57.757Z,4.93
2023-11-20T19:15:27.503Z,7.70
2023-11-20T19:17:56.126Z,5.90
2023-11-20T19:20:24.955Z,6.05
2023-11-20T19:22:53.158Z,8.07
2023-11-20T19:25:21.879Z,8.32
2023-11-20T19:27:52.526Z,8.63
2023-11-20T19:30:21.834Z,7.53
2023-11-20T19:32:51.919Z,5.72
2023-11-20T19:35:24.533Z,3.38
2023-11-20T19:37:54.939Z,12.13
2023-11-20T19:40:26.505Z,7.82
2023-11-20T19:42:56.625Z,7.95
2023-11-20T19:45:27.872Z,5.78
2023-11-20T19:48:00.999Z,3.50
2023-11-20T19:50:29.446Z,4.18
2023-11-20T19:52:57.374Z,4.03
2023-11-20T19:55:25.932Z,5.53
2023-11-20T19:57:54.659Z,4.57
2023-11-20T20:00:23.738Z,4.93
2023-11-20T20:02:55.844Z,5.25
2023-11-20T20:05:26.873Z,6.97
2023-11-20T20:07:59.228Z,4.47
2023-11-20T20:10:28.257Z,3.45
2023-11-20T20:12:56.628Z,7.03
2023-11-20T20:15:25.305Z,6.32
2023-11-20T20:17:56.668Z,4.60
2023-11-20T20:20:28.329Z,4.00
2023-11-20T20:22:56.950Z,5.68
2023-11-20T20:25:27.583Z,9.13
2023-11-20T20:27:57.295Z,5.55
2023-11-20T20:30:25.782Z,2.75
2023-11-20T20:32:56.521Z,13.35
2023-11-20T20:35:28.385Z,6.82
2023-11-20T20:37:56.267Z,9.30
2023-11-20T20:40:27.196Z,8.10
2023-11-20T20:42:58.367Z,7.35
2023-11-20T20:45:29.510Z,5.93
2023-11-20T20:47:57.849Z,8.65
2023-11-20T20:50:31.967Z,6.85
2023-11-20T20:53:01.764Z,10.65
2023-11-20T20:55:30.584Z,4.28
2023-11-20T20:58:00.606Z,8.23
2023-11-20T21:00:29.578Z,5.35
2023-11-20T21:02:57.830Z,5.85
2023-11-20T21:05:27.986Z,5.32
2023-11-20T21:07:58.564Z,6.68
2023-11-20T21:10:27.069Z,3.75
2023-11-20T21:12:55.700Z,4.15
2023-11-20T21:15:25.352Z,4.55
2023-11-20T21:17:54.201Z,6.47
2023-11-20T21:20:22.764Z,6.53
2023-11-20T21:23:00.491Z,4.72
2023-11-20T21:25:30.205Z,7.88
2023-11-20T21:27:58.655Z,7.63
2023-11-20T21:30:26.690Z,5.20
2023-11-20T21:32:56.539Z,5.97
2023-11-20T21:35:27.654Z,5.57
2023-11-20T21:38:04.455Z,7.57
2023-11-20T21:40:34.890Z,4.07
2023-11-20T21:43:03.838Z,4.13
2023-11-20T21:45:34.215Z,7.22
2023-11-20T21:48:07.067Z,5.03
2023-11-20T21:50:35.873Z,5.00
2023-11-20T21:53:07.645Z,3.45
2023-11-20T21:55:35.703Z,6.05
2023-11-20T21:58:04.650Z,6.28
2023-11-20T22:00:32.565Z,8.40
2023-11-20T22:03:01.231Z,6.55
2023-11-20T22:05:29.494Z,6.65
2023-11-20T22:07:58.017Z,6.80
2023-11-20T22:10:27.987Z,5.28
2023-11-20T22:12:56.337Z,9.10
2023-11-20T22:15:26.253Z,9.60
2023-11-20T22:17:55.668Z,8.55
2023-11-20T22:20:24.955Z,7.07
2023-11-20T22:22:58.282Z,4.10
2023-11-20T22:25:28.089Z,7.57
2023-11-20T22:27:56.689Z,8.20
2023-11-20T22:30:25.747Z,3.88
2023-11-20T22:32:56.437Z,8.23
2023-11-20T22:35:24.773Z,8.80
2023-11-20T22:37:53.204Z,10.40
2023-11-20T22:40:23.820Z,4.35
2023-11-20T22:42:57.681Z,11.32
2023-11-20T22:45:27.520Z,8.43
2023-11-20T22:47:56.747Z,8.80
2023-11-20T22:50:24.979Z,5.55
2023-11-20T22:52:53.392Z,7.72
2023-11-20T22:55:21.854Z,8.23
2023-11-20T22:57:50.103Z,7.47
2023-11-20T23:00:27.510Z,8.93
2023-11-20T23:02:56.211Z,5.88
2023-11-20T23:05:25.213Z,3.95
2023-11-20T23:07:53.924Z,3.88
2023-11-20T23:10:21.896Z,7.38
2023-11-20T23:12:50.269Z,6.57
2023-11-20T23:15:21.056Z,9.32
2023-11-20T23:17:52.194Z,7.80
2023-11-20T23:20:20.975Z,7.65
2023-11-20T23:22:50.672Z,10.23
2023-11-20T23:25:21.041Z,11.93
2023-11-20T23:27:51.474Z,6.72
2023-11-20T23:30:24.432Z,9.45
2023-11-20T23:32:53.180Z,6.55
2023-11-20T23:35:22.831Z,6.78
2023-11-20T23:37:51.829Z,8.32
2023-11-20T23:40:21.358Z,6.78
2023-11-20T23:42:49.702Z,4.72
2023-11-20T23:45:19.282Z,5.18
2023-11-20T23:47:52.235Z,3.88
2023-11-20T23:50:22.729Z,7.00
2023-11-20T23:52:51.819Z,6.28
2023-11-20T23:55:21.029Z,6.10
2023-11-20T23:57:49.968Z,6.32
